マニラ/ニノイ・アキノ の空港の天気 - METARとTAF

ニノイ・アキノ国際空港 ( RPLL / MNL ) - フィリピン マニラ
飛行場実況気象(Metar)
観測時間07/18 13:00 PHT (07/18 05:00 UTC)
風向・風速南西 5m/s
視程10km以上
天気現象
全天の4割程度の雲 雲底高度 670m
全天を覆う雲 雲底高度 2740m
気温30℃
湿度89%
気圧1005hPa
METARRPLL 180500Z 23010KT 200V270 9999 SCT022 OVC090 30/28 Q1005 NOSIG RMK A2968
過去の天気等 Google飛行場航空写真 Wunderground天気予報

過去48時間のMETAR

飛行場予報(TAF)
発表時間: 7/18 07:00 PHT (7/17 23:00 UTC)
予報対象時間: 18日8時 PHT ~ 19日14時 PHT
風向・風速南南西 3m/s
視程9000m
天気現象弱い雨
全天の4割程度の雲 雲底高度 670m
全天を覆う雲 雲底高度 2440m
18日8時 PHT ~ 18日14時 PHT に一時的に
風向・風速南西 6m/s
視程6000m
天気現象
全天の8割程度の雲 雲底高度 610m
全天を覆う雲 雲底高度 2130m
18日14時 PHT ~ 18日20時 PHT に一時的に
風向・風速西 6m/s
視程5000m
天気現象強い雨
全天の8割程度の雲 雲底高度 610m
全天を覆う雲 雲底高度 2130m
TAF RPLL 172300Z 1800/1906 21005KT 9000 -RA SCT022 OVC080 TX28/1806Z TN25/1822Z
TEMPO 1800/1806 23011KT 6000 RA BKN020 OVC070
TEMPO 1806/1812 26012KT 5000 +RA BKN020 OVC070